createdAt,value
2022-11-10T00:01:06.616Z,2.70
2022-11-10T00:03:34.448Z,3.03
2022-11-10T00:06:05.617Z,3.07
2022-11-10T00:08:32.440Z,3.30
2022-11-10T00:11:01.330Z,2.90
2022-11-10T00:13:33.286Z,2.93
2022-11-10T00:16:20.432Z,3.07
2022-11-10T00:18:46.948Z,3.60
2022-11-10T00:21:14.638Z,2.53
2022-11-10T00:23:41.654Z,3.10
2022-11-10T00:26:13.261Z,2.73
2022-11-10T00:28:39.879Z,2.97
2022-11-10T00:31:07.128Z,3.07
2022-11-10T00:33:38.167Z,3.00
2022-11-10T00:36:05.146Z,3.50
2022-11-10T00:38:32.014Z,3.63
2022-11-10T00:41:00.753Z,3.20
2022-11-10T00:43:28.392Z,3.10
2022-11-10T00:45:55.594Z,3.10
2022-11-10T00:48:22.303Z,3.27
2022-11-10T00:50:48.827Z,2.53
2022-11-10T00:53:15.380Z,4.20
2022-11-10T00:55:41.981Z,2.50
2022-11-10T00:58:08.613Z,3.10
2022-11-10T01:00:35.113Z,3.17
2022-11-10T01:03:02.685Z,3.00
2022-11-10T01:05:30.478Z,3.70
2022-11-10T01:07:58.330Z,3.20
2022-11-10T01:10:25.223Z,3.07
2022-11-10T01:12:51.712Z,3.70
2022-11-10T01:15:21.707Z,3.20
2022-11-10T01:17:52.151Z,3.47
2022-11-10T01:20:18.801Z,2.70
2022-11-10T01:22:45.317Z,2.77
2022-11-10T01:25:11.990Z,2.93
2022-11-10T01:27:38.578Z,3.40
2022-11-10T01:30:05.537Z,2.90
2022-11-10T01:32:31.993Z,3.23
2022-11-10T01:34:58.437Z,3.70
2022-11-10T01:37:25.057Z,3.60
2022-11-10T01:39:51.589Z,3.57
2022-11-10T01:42:29.800Z,3.27
2022-11-10T01:45:24.400Z,3.20
2022-11-10T01:47:53.211Z,3.30
2022-11-10T01:50:20.636Z,3.27
2022-11-10T01:52:48.899Z,2.73
2022-11-10T01:55:15.621Z,2.80
2022-11-10T01:57:42.359Z,2.67
2022-11-10T02:00:09.573Z,3.90
2022-11-10T02:02:47.934Z,3.17
2022-11-10T02:05:14.406Z,3.10
2022-11-10T02:07:41.357Z,3.93
2022-11-10T02:10:15.618Z,3.10
2022-11-10T02:12:42.214Z,2.90
2022-11-10T02:15:11.289Z,2.77
2022-11-10T02:17:38.238Z,2.50
2022-11-10T02:20:09.990Z,3.00
2022-11-10T02:22:37.159Z,2.93
2022-11-10T02:25:04.989Z,3.33
2022-11-10T02:27:31.730Z,2.60
2022-11-10T02:29:58.789Z,3.20
2022-11-10T02:32:26.001Z,2.90
2022-11-10T02:34:52.506Z,3.37
2022-11-10T02:37:18.946Z,3.00
2022-11-10T02:39:45.536Z,3.10
2022-11-10T02:42:11.967Z,2.90
2022-11-10T02:44:41.344Z,2.90
2022-11-10T02:47:08.100Z,2.67
2022-11-10T02:49:34.589Z,3.10
2022-11-10T02:52:01.121Z,2.87
2022-11-10T02:54:27.762Z,3.13
2022-11-10T02:56:54.227Z,3.83
2022-11-10T02:59:20.668Z,3.67
2022-11-10T03:01:47.125Z,3.53
2022-11-10T03:04:13.714Z,2.83
2022-11-10T03:06:40.185Z,3.30
2022-11-10T03:09:06.745Z,2.87
2022-11-10T03:11:33.207Z,2.67
2022-11-10T03:14:01.812Z,3.33
2022-11-10T03:16:28.959Z,3.97
2022-11-10T03:18:55.447Z,2.90
2022-11-10T03:21:21.916Z,3.27
2022-11-10T03:23:48.392Z,3.73
2022-11-10T03:26:14.834Z,3.33
2022-11-10T03:28:41.318Z,3.47
2022-11-10T03:31:07.992Z,3.00
2022-11-10T03:33:35.728Z,2.70
2022-11-10T03:36:03.161Z,2.73
2022-11-10T03:38:29.613Z,3.03
2022-11-10T03:43:42.623Z,2.20
2022-11-10T03:46:09.358Z,2.83
2022-11-10T03:48:35.837Z,2.53
2022-11-10T03:51:02.310Z,3.30
2022-11-10T03:53:28.844Z,3.77
2022-11-10T03:55:55.243Z,3.07
2022-11-10T03:58:21.667Z,4.23
2022-11-10T04:00:48.162Z,3.00
2022-11-10T04:03:14.659Z,2.73
2022-11-10T04:05:59.712Z,3.43
2022-11-10T04:08:44.626Z,2.97
2022-11-10T04:11:11.060Z,2.80
2022-11-10T04:13:56.127Z,3.73
2022-11-10T04:16:22.626Z,2.73
2022-11-10T04:18:49.116Z,2.17
2022-11-10T04:21:15.740Z,3.33
2022-11-10T04:23:42.206Z,2.90
2022-11-10T04:26:29.753Z,3.77
2022-11-10T04:28:59.933Z,2.83
2022-11-10T04:31:27.981Z,2.93
2022-11-10T04:33:55.274Z,3.40
2022-11-10T04:36:27.584Z,3.40
2022-11-10T04:38:55.447Z,2.70
2022-11-10T04:41:26.175Z,2.97
2022-11-10T04:43:53.146Z,2.73
2022-11-10T04:46:25.580Z,2.80
2022-11-10T04:48:53.163Z,3.87
2022-11-10T04:51:22.035Z,3.30
2022-11-10T04:53:48.596Z,3.30
2022-11-10T04:56:16.617Z,3.57
2022-11-10T04:58:43.220Z,3.37
2022-11-10T05:01:14.576Z,2.70
2022-11-10T05:03:41.994Z,3.63
2022-11-10T05:06:08.977Z,3.00
2022-11-10T05:08:36.068Z,3.50
2022-11-10T05:11:02.584Z,3.63
2022-11-10T05:13:29.242Z,3.67
2022-11-10T05:15:55.701Z,2.70
2022-11-10T05:18:22.274Z,3.40
2022-11-10T05:20:48.836Z,3.33
2022-11-10T05:23:34.014Z,3.23
2022-11-10T05:26:00.486Z,3.90
2022-11-10T05:28:26.980Z,3.10
2022-11-10T05:30:53.681Z,3.50
2022-11-10T05:33:20.498Z,2.77
2022-11-10T05:35:49.865Z,3.40
2022-11-10T05:38:16.974Z,3.10
2022-11-10T05:40:43.577Z,4.07
2022-11-10T05:43:10.774Z,3.27
2022-11-10T05:45:37.740Z,3.30
2022-11-10T05:48:04.494Z,3.70
2022-11-10T05:50:30.946Z,3.27
2022-11-10T05:52:57.821Z,4.10
2022-11-10T05:55:27.269Z,3.23
2022-11-10T05:57:54.826Z,3.00
2022-11-10T06:00:23.851Z,4.33
2022-11-10T06:03:08.060Z,3.97
2022-11-10T06:05:35.710Z,2.90
2022-11-10T06:08:04.073Z,4.20
2022-11-10T06:10:31.609Z,3.87
2022-11-10T06:12:58.293Z,4.50
2022-11-10T06:15:25.336Z,3.57
2022-11-10T06:17:52.390Z,3.27
2022-11-10T06:20:19.357Z,3.57
2022-11-10T06:23:07.491Z,3.60
2022-11-10T06:25:35.704Z,3.50
2022-11-10T06:28:02.785Z,3.70
2022-11-10T06:30:31.281Z,4.37
2022-11-10T06:32:57.856Z,4.50
2022-11-10T06:35:24.839Z,4.10
2022-11-10T06:37:59.093Z,4.50
2022-11-10T06:40:25.645Z,4.37
2022-11-10T06:42:52.156Z,4.20
2022-11-10T06:45:18.709Z,5.10
2022-11-10T06:47:45.149Z,4.20
2022-11-10T06:50:11.669Z,4.17
2022-11-10T06:52:38.123Z,4.93
2022-11-10T06:55:05.201Z,5.00
2022-11-10T06:57:38.240Z,5.37
2022-11-10T07:00:05.351Z,4.10
2022-11-10T07:02:31.794Z,4.93
2022-11-10T07:04:58.228Z,4.30
2022-11-10T07:07:24.722Z,4.10
2022-11-10T07:09:51.176Z,5.23
2022-11-10T07:12:18.224Z,4.70
2022-11-10T07:14:44.658Z,4.40
2022-11-10T07:17:11.106Z,4.80
2022-11-10T07:19:37.771Z,4.30
2022-11-10T07:22:09.644Z,4.20
2022-11-10T07:24:37.344Z,5.17
2022-11-10T07:27:03.924Z,4.83
2022-11-10T07:29:30.362Z,8.83
2022-11-10T07:31:56.833Z,5.20
2022-11-10T07:34:23.254Z,3.97
2022-11-10T07:36:49.714Z,5.00
2022-11-10T07:39:16.235Z,4.83
2022-11-10T07:41:42.658Z,4.70
2022-11-10T07:44:09.083Z,4.13
2022-11-10T07:46:35.553Z,4.30
2022-11-10T07:49:02.025Z,4.30
2022-11-10T07:51:28.651Z,5.10
2022-11-10T07:53:55.351Z,3.90
2022-11-10T07:56:22.178Z,4.60
2022-11-10T07:58:48.641Z,5.60
2022-11-10T08:01:15.130Z,4.17
2022-11-10T08:03:41.664Z,4.30
2022-11-10T08:06:08.220Z,5.77
2022-11-10T08:08:34.979Z,4.13
2022-11-10T08:11:01.535Z,4.00
2022-11-10T08:13:28.047Z,4.53
2022-11-10T08:15:54.621Z,5.20
2022-11-10T08:18:23.699Z,3.53
2022-11-10T08:20:50.505Z,4.30
2022-11-10T08:23:17.846Z,4.80
2022-11-10T08:25:44.724Z,4.00
2022-11-10T08:28:13.109Z,4.33
2022-11-10T08:30:41.260Z,4.00
2022-11-10T08:33:09.348Z,4.30
2022-11-10T08:35:44.202Z,4.10
2022-11-10T08:38:29.157Z,5.40
2022-11-10T08:40:57.387Z,4.60
2022-11-10T08:43:24.337Z,3.90
2022-11-10T08:45:54.492Z,3.70
2022-11-10T08:48:21.364Z,4.43
2022-11-10T08:50:49.596Z,3.70
2022-11-10T08:53:22.114Z,3.30
2022-11-10T08:55:49.197Z,4.53
2022-11-10T08:58:21.378Z,4.63
2022-11-10T09:00:48.419Z,3.63
2022-11-10T09:03:17.282Z,3.43
2022-11-10T09:05:43.784Z,3.80
2022-11-10T09:08:10.605Z,3.80
2022-11-10T09:10:40.346Z,2.57
2022-11-10T09:13:06.942Z,3.70
2022-11-10T09:15:34.134Z,3.50
2022-11-10T09:18:01.970Z,3.17
2022-11-10T09:20:30.314Z,3.50
2022-11-10T09:22:57.085Z,3.40
2022-11-10T09:25:23.853Z,3.77
2022-11-10T09:27:50.468Z,2.77
2022-11-10T09:30:18.130Z,3.17
2022-11-10T09:32:46.707Z,2.63
2022-11-10T09:35:13.660Z,3.90
2022-11-10T09:37:40.497Z,3.00
2022-11-10T09:40:16.686Z,3.13
2022-11-10T09:42:43.269Z,2.90
2022-11-10T09:45:24.658Z,2.90
2022-11-10T09:48:18.794Z,3.10
2022-11-10T09:51:01.861Z,2.90
2022-11-10T09:53:35.087Z,3.10
2022-11-10T09:56:03.838Z,3.03
2022-11-10T09:58:43.389Z,3.07
2022-11-10T10:01:25.153Z,3.80
2022-11-10T10:04:02.381Z,3.50
2022-11-10T10:06:43.721Z,3.63
2022-11-10T10:09:37.008Z,3.30
2022-11-10T10:12:23.205Z,3.73
2022-11-10T10:15:25.397Z,3.43
2022-11-10T10:18:06.201Z,3.17
2022-11-10T10:20:55.726Z,3.20
2022-11-10T10:26:32.534Z,8.23
2022-11-10T10:29:06.053Z,3.60
2022-11-10T10:31:40.776Z,2.80
2022-11-10T10:34:15.588Z,3.70
2022-11-10T10:36:42.145Z,3.50
2022-11-10T10:39:26.200Z,4.60
2022-11-10T10:41:52.765Z,5.40
2022-11-10T10:44:19.854Z,3.70
2022-11-10T10:46:51.484Z,4.00
2022-11-10T10:49:29.087Z,3.10
2022-11-10T10:52:04.096Z,3.60
2022-11-10T10:54:34.631Z,3.10
2022-11-10T10:57:19.397Z,3.40
2022-11-10T10:59:46.052Z,3.53
2022-11-10T11:02:31.224Z,3.30
2022-11-10T11:05:12.143Z,3.90
2022-11-10T11:07:38.741Z,2.93
2022-11-10T11:10:33.423Z,3.20
2022-11-10T11:13:15.480Z,3.80
2022-11-10T11:15:42.315Z,3.10
2022-11-10T11:18:17.345Z,4.00
2022-11-10T11:20:53.785Z,3.73
2022-11-10T11:23:39.051Z,3.70
2022-11-10T11:26:34.777Z,2.90
2022-11-10T11:29:13.263Z,3.53
2022-11-10T11:32:34.750Z,3.73
2022-11-10T11:35:31.941Z,3.23
2022-11-10T11:38:36.554Z,2.77
2022-11-10T11:41:21.139Z,3.63
2022-11-10T11:44:06.905Z,3.13
2022-11-10T11:46:39.326Z,3.57
2022-11-10T11:49:21.516Z,5.03
2022-11-10T11:51:58.661Z,3.43
2022-11-10T11:54:40.377Z,5.90
2022-11-10T11:57:19.206Z,3.90
2022-11-10T12:00:13.710Z,3.60
2022-11-10T12:03:03.490Z,3.20
2022-11-10T12:06:14.138Z,2.80
2022-11-10T12:08:46.908Z,3.13
2022-11-10T12:11:36.741Z,3.37
2022-11-10T12:14:21.473Z,3.07
2022-11-10T12:17:08.051Z,3.27
2022-11-10T12:19:44.617Z,2.83
2022-11-10T12:22:32.795Z,3.70
2022-11-10T12:25:22.633Z,3.47
2022-11-10T12:27:53.982Z,3.13
2022-11-10T12:30:20.575Z,3.30
2022-11-10T12:32:53.031Z,3.43
2022-11-10T12:35:25.883Z,3.73
2022-11-10T12:38:01.431Z,3.37
2022-11-10T12:40:36.986Z,3.13
2022-11-10T12:43:17.659Z,3.27
2022-11-10T12:45:54.944Z,2.00
2022-11-10T12:48:22.337Z,2.33
2022-11-10T12:51:10.042Z,2.83
2022-11-10T12:53:41.152Z,2.87
2022-11-10T12:56:13.665Z,3.03
2022-11-10T12:58:40.175Z,2.80
2022-11-10T13:01:18.572Z,2.20
2022-11-10T13:03:54.614Z,2.53
2022-11-10T13:06:37.821Z,2.90
2022-11-10T13:09:04.598Z,2.77
2022-11-10T13:11:33.493Z,2.83
2022-11-10T13:14:02.553Z,4.00
2022-11-10T13:16:53.961Z,3.23
2022-11-10T13:19:20.454Z,2.10
2022-11-10T13:21:53.178Z,2.43
2022-11-10T13:24:28.936Z,1.90
2022-11-10T13:27:03.979Z,2.80
2022-11-10T13:29:42.596Z,2.53
2022-11-10T13:32:15.172Z,2.33
2022-11-10T13:34:42.977Z,2.13
2022-11-10T13:37:34.594Z,2.37
2022-11-10T13:40:23.238Z,2.10
2022-11-10T13:42:58.651Z,1.97
2022-11-10T13:45:31.162Z,2.10
2022-11-10T13:48:03.732Z,2.27
2022-11-10T13:51:05.410Z,2.33
2022-11-10T13:53:40.030Z,2.20
2022-11-10T13:56:40.962Z,2.03
2022-11-10T13:59:19.230Z,1.73
2022-11-10T14:01:46.226Z,2.47
2022-11-10T14:04:42.640Z,2.50
2022-11-10T14:07:18.000Z,2.00
2022-11-10T14:09:53.818Z,1.57
2022-11-10T14:12:29.367Z,1.63
2022-11-10T14:15:19.694Z,1.57
2022-11-10T14:17:55.046Z,1.83
2022-11-10T14:20:25.260Z,1.90
2022-11-10T14:22:52.485Z,1.77
2022-11-10T14:25:36.240Z,1.83
2022-11-10T14:28:03.994Z,1.70
2022-11-10T14:30:33.475Z,2.03
2022-11-10T14:33:02.266Z,1.93
2022-11-10T14:35:33.772Z,2.00
2022-11-10T14:38:01.886Z,2.20
2022-11-10T14:40:29.037Z,1.67
2022-11-10T14:42:55.695Z,1.77
2022-11-10T14:45:29.553Z,1.90
2022-11-10T14:47:59.272Z,1.60
2022-11-10T14:50:27.791Z,1.40
2022-11-10T14:53:00.129Z,1.90
2022-11-10T14:55:30.299Z,2.10
2022-11-10T14:58:11.753Z,1.90
2022-11-10T15:00:39.663Z,1.80
2022-11-10T15:03:07.708Z,1.70
2022-11-10T15:05:34.976Z,1.80
2022-11-10T15:08:03.262Z,2.10
2022-11-10T15:10:41.690Z,2.40
2022-11-10T15:13:14.203Z,1.87
2022-11-10T15:15:41.598Z,3.07
2022-11-10T15:18:29.183Z,2.70
2022-11-10T15:21:02.375Z,1.73
2022-11-10T15:23:39.811Z,2.10
2022-11-10T15:26:13.990Z,1.67
2022-11-10T15:28:42.108Z,2.37
2022-11-10T15:31:11.155Z,2.07
2022-11-10T15:33:38.831Z,2.37
2022-11-10T15:36:28.530Z,2.70
2022-11-10T15:39:02.066Z,2.50
2022-11-10T15:41:31.497Z,2.00
2022-11-10T15:43:58.018Z,2.60
2022-11-10T15:46:26.134Z,2.33
2022-11-10T15:48:53.212Z,3.20
2022-11-10T15:51:25.908Z,6.43
2022-11-10T15:53:54.197Z,6.80
2022-11-10T15:56:23.543Z,2.60
2022-11-10T15:58:51.748Z,2.13
2022-11-10T16:01:18.480Z,2.70
2022-11-10T16:03:45.888Z,3.27
2022-11-10T16:06:16.493Z,4.33
2022-11-10T16:08:43.325Z,3.00
2022-11-10T16:11:14.004Z,2.87
2022-11-10T16:13:40.475Z,3.67
2022-11-10T16:16:07.186Z,3.00
2022-11-10T16:18:33.660Z,2.83
2022-11-10T16:21:00.104Z,2.70
2022-11-10T16:23:27.061Z,2.57
2022-11-10T16:25:55.061Z,2.80
2022-11-10T16:28:24.636Z,3.33
2022-11-10T16:30:52.722Z,4.07
2022-11-10T16:33:21.255Z,4.13
2022-11-10T16:35:52.340Z,4.20
2022-11-10T16:38:22.062Z,4.60
2022-11-10T16:40:54.496Z,3.53
2022-11-10T16:43:21.324Z,3.03
2022-11-10T16:45:49.129Z,3.20
2022-11-10T16:48:18.252Z,3.57
2022-11-10T16:50:45.808Z,3.57
2022-11-10T16:53:17.781Z,3.47
2022-11-10T16:55:44.589Z,3.10
2022-11-10T16:58:11.817Z,3.30
2022-11-10T17:00:39.868Z,10.80
2022-11-10T17:03:11.754Z,4.57
2022-11-10T17:05:38.981Z,4.13
2022-11-10T17:08:05.481Z,2.97
2022-11-10T17:10:31.989Z,4.30
2022-11-10T17:12:58.468Z,3.37
2022-11-10T17:15:24.980Z,3.40
2022-11-10T17:17:53.954Z,2.83
2022-11-10T17:20:28.161Z,2.77
2022-11-10T17:22:54.984Z,3.43
2022-11-10T17:25:26.193Z,3.10
2022-11-10T17:27:53.369Z,3.00
2022-11-10T17:30:23.252Z,3.27
2022-11-10T17:33:04.814Z,2.80
2022-11-10T17:35:35.048Z,3.70
2022-11-10T17:38:06.116Z,3.47
2022-11-10T17:40:32.604Z,4.07
2022-11-10T17:42:59.230Z,4.63
2022-11-10T17:45:27.406Z,8.53
2022-11-10T17:47:53.949Z,7.03
2022-11-10T17:50:22.519Z,5.20
2022-11-10T17:52:49.713Z,4.50
2022-11-10T17:55:32.882Z,4.97
2022-11-10T17:58:00.839Z,3.83
2022-11-10T18:00:27.293Z,3.87
2022-11-10T18:02:55.448Z,3.40
2022-11-10T18:05:22.281Z,3.03
2022-11-10T18:07:52.007Z,2.50
2022-11-10T18:10:18.734Z,2.77
2022-11-10T18:12:45.231Z,3.20
2022-11-10T18:15:14.435Z,2.60
2022-11-10T18:17:41.785Z,2.90
2022-11-10T18:20:09.725Z,2.90
2022-11-10T18:22:36.431Z,4.37
2022-11-10T18:25:03.362Z,3.03
2022-11-10T18:27:30.104Z,3.10
2022-11-10T18:29:56.614Z,2.87
2022-11-10T18:32:23.403Z,3.70
2022-11-10T18:34:50.124Z,4.00
2022-11-10T18:37:17.595Z,3.40
2022-11-10T18:39:46.382Z,3.00
2022-11-10T18:42:13.411Z,3.90
2022-11-10T18:44:40.164Z,3.80
2022-11-10T18:47:07.636Z,2.90
2022-11-10T18:49:34.168Z,3.33
2022-11-10T18:52:00.762Z,3.43
2022-11-10T18:54:27.617Z,4.33
2022-11-10T18:56:54.203Z,3.00
2022-11-10T18:59:20.900Z,2.90
2022-11-10T19:01:47.559Z,3.47
2022-11-10T19:04:14.455Z,3.57
2022-11-10T19:06:41.018Z,3.30
2022-11-10T19:09:07.606Z,4.97
2022-11-10T19:11:34.653Z,3.90
2022-11-10T19:14:02.305Z,4.27
2022-11-10T19:16:29.941Z,4.20
2022-11-10T19:18:57.225Z,3.80
2022-11-10T19:21:27.524Z,4.00
2022-11-10T19:23:55.887Z,3.33
2022-11-10T19:26:23.118Z,3.00
2022-11-10T19:28:50.100Z,3.47
2022-11-10T19:31:18.327Z,3.80
2022-11-10T19:33:46.221Z,3.20
2022-11-10T19:36:17.841Z,3.60
2022-11-10T19:38:44.417Z,3.43
2022-11-10T19:41:22.393Z,3.50
2022-11-10T19:43:48.964Z,3.27
2022-11-10T19:46:24.430Z,3.40
2022-11-10T19:48:51.255Z,3.10
2022-11-10T19:51:18.908Z,2.53
2022-11-10T19:53:48.015Z,3.93
2022-11-10T19:56:26.268Z,3.77
2022-11-10T19:58:55.501Z,4.10
2022-11-10T20:01:22.221Z,3.40
2022-11-10T20:03:48.733Z,3.30
2022-11-10T20:06:17.961Z,4.13
2022-11-10T20:08:44.569Z,4.03
2022-11-10T20:11:38.337Z,3.57
2022-11-10T20:14:06.597Z,4.10
2022-11-10T20:16:33.148Z,3.90
2022-11-10T20:18:59.696Z,3.70
2022-11-10T20:21:26.479Z,3.50
2022-11-10T20:23:54.395Z,4.00
2022-11-10T20:26:21.186Z,3.30
2022-11-10T20:28:47.848Z,4.57
2022-11-10T20:31:26.240Z,8.30
2022-11-10T20:33:54.758Z,7.90
2022-11-10T20:36:27.171Z,6.10
2022-11-10T20:38:55.469Z,6.70
2022-11-10T20:41:25.487Z,6.63
2022-11-10T20:43:52.018Z,5.27
2022-11-10T20:46:48.046Z,5.27
2022-11-10T20:49:07.097Z,4.40
2022-11-10T20:51:33.548Z,3.93
2022-11-10T20:54:01.104Z,3.03
2022-11-10T20:56:29.942Z,4.10
2022-11-10T20:58:57.575Z,3.60
2022-11-10T21:01:24.527Z,3.70
2022-11-10T21:03:52.361Z,4.00
2022-11-10T21:06:18.815Z,3.37
2022-11-10T21:08:45.618Z,3.33
2022-11-10T21:11:32.650Z,3.57
2022-11-10T21:13:59.740Z,3.03
2022-11-10T21:16:29.284Z,2.87
2022-11-10T21:18:56.317Z,2.93
2022-11-10T21:21:34.283Z,3.60
2022-11-10T21:24:02.042Z,5.60
2022-11-10T21:26:28.677Z,2.90
2022-11-10T21:28:55.350Z,2.80
2022-11-10T21:31:22.069Z,4.00
2022-11-10T21:33:48.906Z,3.67
2022-11-10T21:36:15.463Z,2.80
2022-11-10T21:38:48.515Z,3.30
2022-11-10T21:41:15.128Z,3.20
2022-11-10T21:43:42.149Z,2.90
2022-11-10T21:46:08.620Z,3.80
2022-11-10T21:48:35.641Z,3.40
2022-11-10T21:51:06.693Z,3.00
2022-11-10T21:53:33.884Z,3.40
2022-11-10T21:56:02.098Z,2.90
2022-11-10T21:58:29.088Z,3.30
2022-11-10T22:01:02.296Z,3.03
2022-11-10T22:03:29.562Z,2.97
2022-11-10T22:05:56.052Z,3.40
2022-11-10T22:08:26.836Z,3.20
2022-11-10T22:11:12.200Z,2.93
2022-11-10T22:13:57.053Z,3.03
2022-11-10T22:16:47.472Z,3.67
2022-11-10T22:19:13.967Z,3.40
2022-11-10T22:21:40.412Z,3.10
2022-11-10T22:24:25.573Z,4.17
2022-11-10T22:26:57.768Z,3.20
2022-11-10T22:29:31.073Z,3.60
2022-11-10T22:32:01.825Z,3.67
2022-11-10T22:34:28.554Z,4.13
2022-11-10T22:36:55.205Z,3.50
2022-11-10T22:39:22.002Z,3.47
2022-11-10T22:42:07.170Z,3.87
2022-11-10T22:44:33.661Z,3.53
2022-11-10T22:47:00.186Z,3.50
2022-11-10T22:49:26.648Z,2.97
2022-11-10T22:51:55.257Z,3.37
2022-11-10T22:54:23.408Z,4.10
2022-11-10T22:56:50.999Z,3.87
2022-11-10T22:59:17.783Z,4.23
2022-11-10T23:01:44.502Z,3.70
2022-11-10T23:04:11.507Z,4.10
2022-11-10T23:06:38.237Z,3.00
2022-11-10T23:09:04.966Z,3.33
2022-11-10T23:11:32.822Z,4.03
2022-11-10T23:13:59.419Z,5.53
2022-11-10T23:16:28.474Z,4.77
2022-11-10T23:18:56.352Z,4.10
2022-11-10T23:21:25.622Z,4.70
2022-11-10T23:23:53.526Z,4.30
2022-11-10T23:26:25.490Z,7.90
2022-11-10T23:28:52.997Z,5.63
2022-11-10T23:31:21.986Z,5.80
2022-11-10T23:33:52.589Z,5.80
2022-11-10T23:36:20.228Z,4.30
2022-11-10T23:38:48.670Z,4.53
2022-11-10T23:41:17.244Z,4.50
2022-11-10T23:43:44.087Z,5.50
2022-11-10T23:46:11.100Z,6.57
2022-11-10T23:48:38.914Z,4.50
2022-11-10T23:51:06.788Z,5.30
2022-11-10T23:53:33.329Z,3.93
2022-11-10T23:56:05.630Z,3.97
2022-11-10T23:58:32.664Z,3.80
